createdAt,value
2023-03-02T00:01:40.129Z,100636.78
2023-03-02T00:04:07.954Z,100642.94
2023-03-02T00:06:35.815Z,100634.25
2023-03-02T00:09:04.349Z,100643.09
2023-03-02T00:11:32.384Z,100641.44
2023-03-02T00:14:00.080Z,100643.38
2023-03-02T00:16:27.722Z,100641.78
2023-03-02T00:18:55.496Z,100634.16
2023-03-02T00:21:24.658Z,100632.63
2023-03-02T00:23:53.258Z,100638.09
2023-03-02T00:26:21.071Z,100631.31
2023-03-02T00:28:48.746Z,100626.19
2023-03-02T00:31:16.714Z,100618.34
2023-03-02T00:33:44.637Z,100621.97
2023-03-02T00:36:13.443Z,100617.72
2023-03-02T00:38:41.150Z,100619.72
2023-03-02T00:41:08.838Z,100619.06
2023-03-02T00:43:36.652Z,100611.38
2023-03-02T00:46:04.904Z,100605.38
2023-03-02T00:48:32.824Z,100598.56
2023-03-02T00:51:00.467Z,100605.72
2023-03-02T00:53:28.168Z,100608.50
2023-03-02T00:55:55.849Z,100613.03
2023-03-02T00:58:23.446Z,100613.25
2023-03-02T01:00:51.472Z,100612.59
2023-03-02T01:03:19.242Z,100630.09
2023-03-02T01:05:46.889Z,100620.63
2023-03-02T01:08:16.010Z,100634.66
2023-03-02T01:10:43.775Z,100630.38
2023-03-02T01:13:11.756Z,100630.47
2023-03-02T01:15:39.372Z,100627.97
2023-03-02T01:18:07.005Z,100626.31
2023-03-02T01:20:34.847Z,100628.22
2023-03-02T01:23:02.432Z,100627.47
2023-03-02T01:25:30.436Z,100628.44
2023-03-02T01:27:58.326Z,100624.16
2023-03-02T01:30:25.934Z,100623.28
2023-03-02T01:32:53.663Z,100618.94
2023-03-02T01:35:21.313Z,100616.91
2023-03-02T01:37:49.350Z,100617.56
2023-03-02T01:40:17.012Z,100610.47
2023-03-02T01:45:43.356Z,100604.97
2023-03-02T01:48:11.354Z,100601.28
2023-03-02T01:50:39.375Z,100594.16
2023-03-02T01:53:07.042Z,100595.88
2023-03-02T01:55:34.690Z,100602.06
2023-03-02T01:58:02.304Z,100603.09
2023-03-02T02:00:30.366Z,100605.06
2023-03-02T02:03:08.781Z,100600.84
2023-03-02T02:05:36.471Z,100591.31
2023-03-02T02:08:04.079Z,100589.63
2023-03-02T02:10:32.085Z,100590.47
2023-03-02T02:12:59.799Z,100595.75
2023-03-02T02:15:27.417Z,100592.22
2023-03-02T02:17:55.734Z,100587.91
2023-03-02T02:20:24.196Z,100571.34
2023-03-02T02:22:52.163Z,100573.97
2023-03-02T02:25:19.915Z,100571.31
2023-03-02T02:27:47.605Z,100579.97
2023-03-02T02:30:15.434Z,100579.94
2023-03-02T02:32:43.465Z,100580.84
2023-03-02T02:35:11.480Z,100580.84
2023-03-02T02:37:39.037Z,100570.38
2023-03-02T02:40:07.686Z,100566.75
2023-03-02T02:42:35.385Z,100564.03
2023-03-02T02:45:02.995Z,100555.22
2023-03-02T02:47:31.039Z,100554.31
2023-03-02T02:49:58.894Z,100555.16
2023-03-02T02:52:26.462Z,100550.75
2023-03-02T02:54:55.791Z,100549.84
2023-03-02T02:57:24.789Z,100555.03
2023-03-02T02:59:52.737Z,100561.09
2023-03-02T03:02:20.862Z,100555.00
2023-03-02T03:04:48.510Z,100555.88
2023-03-02T03:07:16.064Z,100548.91
2023-03-02T03:09:43.690Z,100553.22
2023-03-02T03:12:11.721Z,100552.28
2023-03-02T03:14:39.339Z,100558.31
2023-03-02T03:17:12.764Z,100551.34
2023-03-02T03:19:40.606Z,100552.25
2023-03-02T03:22:08.200Z,100544.38
2023-03-02T03:24:36.213Z,100550.47
2023-03-02T03:27:05.621Z,100540.09
2023-03-02T03:29:33.300Z,100541.81
2023-03-02T03:32:01.106Z,100540.13
2023-03-02T03:34:28.880Z,100531.44
2023-03-02T03:37:02.196Z,100539.31
2023-03-02T03:39:29.815Z,100541.06
2023-03-02T03:41:57.392Z,100544.56
2023-03-02T03:44:25.397Z,100534.91
2023-03-02T03:46:52.958Z,100541.03
2023-03-02T03:49:20.900Z,100548.84
2023-03-02T03:51:48.504Z,100550.56
2023-03-02T03:54:16.243Z,100546.22
2023-03-02T03:56:45.063Z,100544.53
2023-03-02T03:59:13.858Z,100542.78
2023-03-02T04:01:41.929Z,100545.50
2023-03-02T04:04:09.650Z,100549.00
2023-03-02T04:06:37.346Z,100544.63
2023-03-02T04:09:05.838Z,100548.16
2023-03-02T04:11:33.469Z,100542.97
2023-03-02T04:14:01.132Z,100548.22
2023-03-02T04:16:28.724Z,100549.16
2023-03-02T04:18:56.769Z,100557.06
2023-03-02T04:21:24.615Z,100557.16
2023-03-02T04:23:52.211Z,100565.03
2023-03-02T04:26:20.202Z,100561.50
2023-03-02T04:28:50.960Z,100563.22
2023-03-02T04:31:18.642Z,100566.75
2023-03-02T04:33:46.322Z,100567.75
2023-03-02T04:36:13.989Z,100562.59
2023-03-02T04:38:42.052Z,100564.47
2023-03-02T04:41:10.065Z,100561.91
2023-03-02T04:43:37.682Z,100561.09
2023-03-02T04:46:05.512Z,100567.28
2023-03-02T04:48:33.161Z,100563.00
2023-03-02T04:51:01.138Z,100565.81
2023-03-02T04:53:28.732Z,100556.31
2023-03-02T04:55:56.354Z,100556.41
2023-03-02T04:58:24.212Z,100555.50
2023-03-02T05:00:51.797Z,100551.97
2023-03-02T05:03:20.306Z,100550.13
2023-03-02T05:05:47.918Z,100547.41
2023-03-02T05:08:15.578Z,100548.22
2023-03-02T05:10:43.359Z,100545.56
2023-03-02T05:13:11.020Z,100548.19
2023-03-02T05:15:38.630Z,100545.47
2023-03-02T05:18:06.214Z,100545.44
2023-03-02T05:20:34.550Z,100544.53
2023-03-02T05:23:02.366Z,100535.84
2023-03-02T05:25:30.324Z,100539.31
2023-03-02T05:27:58.342Z,100539.38
2023-03-02T05:30:25.988Z,100538.50
2023-03-02T05:32:53.648Z,100538.50
2023-03-02T05:35:21.439Z,100537.53
2023-03-02T05:37:49.083Z,100538.34
2023-03-02T05:40:17.073Z,100536.53
2023-03-02T05:42:44.790Z,100534.72
2023-03-02T05:45:12.504Z,100539.00
2023-03-02T05:47:41.492Z,100536.31
2023-03-02T05:50:09.210Z,100532.84
2023-03-02T05:52:37.226Z,100530.22
2023-03-02T05:55:04.844Z,100532.84
2023-03-02T05:57:32.581Z,100531.94
2023-03-02T06:00:00.193Z,100530.19
2023-03-02T06:02:27.900Z,100529.31
2023-03-02T06:04:55.957Z,100528.41
2023-03-02T06:07:23.613Z,100538.03
2023-03-02T06:09:52.028Z,100533.66
2023-03-02T06:12:19.890Z,100528.50
2023-03-02T06:14:48.109Z,100537.25
2023-03-02T06:17:16.121Z,100532.94
2023-03-02T06:19:43.806Z,100532.88
2023-03-02T06:22:11.397Z,100537.19
2023-03-02T06:24:39.228Z,100539.81
2023-03-02T06:27:06.940Z,100541.56
2023-03-02T06:29:34.956Z,100545.94
2023-03-02T06:32:02.827Z,100552.06
2023-03-02T06:34:30.593Z,100547.75
2023-03-02T06:36:58.622Z,100559.03
2023-03-02T06:39:26.323Z,100550.34
2023-03-02T06:41:54.554Z,100553.88
2023-03-02T06:44:22.237Z,100553.75
2023-03-02T06:46:49.867Z,100554.53
2023-03-02T06:49:17.997Z,100551.00
2023-03-02T06:51:45.672Z,100555.28
2023-03-02T06:54:14.206Z,100556.00
2023-03-02T06:56:41.907Z,100556.84
2023-03-02T06:59:09.533Z,100563.72
2023-03-02T07:01:37.417Z,100564.56
2023-03-02T07:04:05.356Z,100563.69
2023-03-02T07:06:33.340Z,100565.38
2023-03-02T07:09:01.000Z,100568.00
2023-03-02T07:11:28.767Z,100565.34
2023-03-02T07:13:56.790Z,100564.47
2023-03-02T07:16:24.767Z,100567.09
2023-03-02T07:18:52.870Z,100568.78
2023-03-02T07:21:20.524Z,100571.34
2023-03-02T07:23:48.242Z,100567.72
2023-03-02T07:26:16.339Z,100573.72
2023-03-02T07:28:44.739Z,100572.69
2023-03-02T07:31:12.518Z,100579.41
2023-03-02T07:33:40.360Z,100573.69
2023-03-02T07:36:08.186Z,100565.38
2023-03-02T07:38:37.235Z,100571.75
2023-03-02T07:41:05.175Z,100558.75
2023-03-02T07:43:36.106Z,100559.75
2023-03-02T07:46:04.619Z,100564.13
2023-03-02T07:48:32.381Z,100566.25
2023-03-02T07:51:00.138Z,100566.03
2023-03-02T07:53:27.958Z,100560.63
2023-03-02T07:55:56.158Z,100559.16
2023-03-02T07:58:24.383Z,100564.09
2023-03-02T08:00:52.229Z,100565.47
2023-03-02T08:03:20.053Z,100559.94
2023-03-02T08:05:47.743Z,100560.75
2023-03-02T08:08:16.168Z,100560.13
2023-03-02T08:10:43.907Z,100560.38
2023-03-02T08:13:11.810Z,100563.28
2023-03-02T08:15:40.327Z,100557.94
2023-03-02T08:18:08.169Z,100553.41
2023-03-02T08:20:36.399Z,100552.34
2023-03-02T08:23:04.592Z,100553.47
2023-03-02T08:25:32.500Z,100549.69
2023-03-02T08:28:00.585Z,100549.75
2023-03-02T08:30:28.637Z,100544.56
2023-03-02T08:32:56.428Z,100543.84
2023-03-02T08:35:24.269Z,100541.38
2023-03-02T08:37:52.116Z,100545.88
2023-03-02T08:40:20.121Z,100540.34
2023-03-02T08:42:48.346Z,100537.16
2023-03-02T08:45:17.028Z,100535.28
2023-03-02T08:47:44.918Z,100534.16
2023-03-02T08:50:15.269Z,100531.78
2023-03-02T08:52:43.911Z,100530.19
2023-03-02T08:55:11.727Z,100527.28
2023-03-02T08:57:41.922Z,100515.81
2023-03-02T09:00:14.962Z,100517.81
2023-03-02T09:02:42.731Z,100515.72
2023-03-02T09:05:10.630Z,100510.00
2023-03-02T09:07:38.520Z,100518.72
2023-03-02T09:10:06.659Z,100516.59
2023-03-02T09:12:34.573Z,100505.91
2023-03-02T09:15:02.605Z,100514.50
2023-03-02T09:17:30.892Z,100514.50
2023-03-02T09:20:00.640Z,100516.03
2023-03-02T09:22:29.523Z,100516.41
2023-03-02T09:24:57.342Z,100497.66
2023-03-02T09:27:25.281Z,100499.66
2023-03-02T09:29:53.671Z,100499.41
2023-03-02T09:32:21.641Z,100495.31
2023-03-02T09:34:49.955Z,100501.75
2023-03-02T09:37:17.953Z,100499.53
2023-03-02T09:39:45.686Z,100495.31
2023-03-02T09:42:13.667Z,100503.25
2023-03-02T09:44:42.034Z,100504.19
2023-03-02T09:47:10.141Z,100495.50
2023-03-02T09:49:38.017Z,100500.78
2023-03-02T09:52:06.056Z,100502.44
2023-03-02T09:54:34.028Z,100495.94
2023-03-02T09:57:02.310Z,100501.69
2023-03-02T09:59:30.848Z,100501.16
2023-03-02T10:02:01.548Z,100497.94
2023-03-02T10:04:29.443Z,100496.41
2023-03-02T10:06:58.153Z,100499.41
2023-03-02T10:09:26.448Z,100493.94
2023-03-02T10:11:55.609Z,100494.44
2023-03-02T10:14:23.607Z,100492.25
2023-03-02T10:16:51.462Z,100496.84
2023-03-02T10:19:19.607Z,100490.72
2023-03-02T10:21:47.636Z,100479.97
2023-03-02T10:24:16.133Z,100477.03
2023-03-02T10:26:43.874Z,100477.66
2023-03-02T10:29:11.774Z,100474.81
2023-03-02T10:31:39.834Z,100462.69
2023-03-02T10:34:07.687Z,100461.00
2023-03-02T10:36:36.281Z,100460.47
2023-03-02T10:39:04.431Z,100460.41
2023-03-02T10:41:32.958Z,100458.03
2023-03-02T10:44:01.114Z,100454.16
2023-03-02T10:46:29.023Z,100458.63
2023-03-02T10:48:58.301Z,100454.22
2023-03-02T10:51:26.176Z,100446.09
2023-03-02T10:53:54.272Z,100454.25
2023-03-02T10:56:22.584Z,100445.84
2023-03-02T10:58:50.411Z,100446.16
2023-03-02T11:01:18.900Z,100446.47
2023-03-02T11:03:46.913Z,100447.38
2023-03-02T11:06:14.742Z,100441.97
2023-03-02T11:08:42.984Z,100445.38
2023-03-02T11:11:10.984Z,100444.78
2023-03-02T11:13:39.364Z,100436.78
2023-03-02T11:16:07.428Z,100446.66
2023-03-02T11:18:35.271Z,100446.97
2023-03-02T11:21:04.281Z,100448.75
2023-03-02T11:23:32.601Z,100444.38
2023-03-02T11:26:00.773Z,100442.75
2023-03-02T11:28:29.237Z,100441.53
2023-03-02T11:30:57.082Z,100438.75
2023-03-02T11:33:25.169Z,100431.94
2023-03-02T11:35:53.215Z,100433.53
2023-03-02T11:38:21.965Z,100428.13
2023-03-02T11:40:49.722Z,100418.50
2023-03-02T11:43:17.688Z,100421.81
2023-03-02T11:45:45.833Z,100419.41
2023-03-02T11:48:13.834Z,100414.91
2023-03-02T11:50:41.781Z,100413.50
2023-03-02T11:53:09.695Z,100412.63
2023-03-02T11:55:37.577Z,100413.00
2023-03-02T11:58:05.862Z,100417.41
2023-03-02T12:00:33.677Z,100413.38
2023-03-02T12:03:02.066Z,100391.91
2023-03-02T12:05:30.127Z,100397.97
2023-03-02T12:07:58.121Z,100391.91
2023-03-02T12:10:28.772Z,100401.03
2023-03-02T12:12:56.814Z,100396.75
2023-03-02T12:15:25.190Z,100386.25
2023-03-02T12:17:53.502Z,100383.16
2023-03-02T12:20:21.548Z,100389.16
2023-03-02T12:22:50.989Z,100379.69
2023-03-02T12:25:20.171Z,100376.25
2023-03-02T12:27:49.384Z,100369.97
2023-03-02T12:30:17.320Z,100373.72
2023-03-02T12:32:45.395Z,100373.22
2023-03-02T12:35:14.209Z,100373.28
2023-03-02T12:37:42.027Z,100371.59
2023-03-02T12:40:10.514Z,100364.75
2023-03-02T12:42:38.617Z,100358.88
2023-03-02T12:45:06.826Z,100365.53
2023-03-02T12:47:35.561Z,100363.50
2023-03-02T12:50:03.676Z,100362.91
2023-03-02T12:52:32.319Z,100362.13
2023-03-02T12:55:00.231Z,100360.19
2023-03-02T12:57:28.319Z,100363.25
2023-03-02T12:59:56.763Z,100359.19
2023-03-02T13:02:24.727Z,100364.75
2023-03-02T13:04:53.533Z,100359.28
2023-03-02T13:07:21.624Z,100363.22
2023-03-02T13:09:56.196Z,100355.91
2023-03-02T13:12:24.855Z,100351.88
2023-03-02T13:14:52.754Z,100359.16
2023-03-02T13:17:20.947Z,100355.22
2023-03-02T13:19:50.795Z,100352.69
2023-03-02T13:22:18.842Z,100345.19
2023-03-02T13:24:46.757Z,100347.59
2023-03-02T13:27:14.768Z,100349.78
2023-03-02T13:29:43.136Z,100345.78
2023-03-02T13:32:11.086Z,100344.63
2023-03-02T13:34:39.037Z,100346.88
2023-03-02T13:37:06.886Z,100345.56
2023-03-02T13:39:34.809Z,100344.53
2023-03-02T13:42:02.782Z,100348.47
2023-03-02T13:44:30.582Z,100339.00
2023-03-02T13:46:58.507Z,100340.78
2023-03-02T13:49:28.161Z,100347.97
2023-03-02T13:51:56.071Z,100339.88
2023-03-02T13:54:24.550Z,100334.16
2023-03-02T13:56:52.731Z,100331.25
2023-03-02T13:59:20.597Z,100328.50
2023-03-02T14:01:48.405Z,100326.91
2023-03-02T14:04:17.007Z,100320.94
2023-03-02T14:06:45.386Z,100316.84
2023-03-02T14:09:13.283Z,100316.31
2023-03-02T14:11:41.759Z,100314.75
2023-03-02T14:14:09.978Z,100314.28
2023-03-02T14:16:37.836Z,100305.59
2023-03-02T14:19:06.068Z,100312.41
2023-03-02T14:21:36.468Z,100302.69
2023-03-02T14:24:04.590Z,100297.44
2023-03-02T14:26:32.745Z,100303.53
2023-03-02T14:29:05.733Z,100305.94
2023-03-02T14:31:34.806Z,100298.97
2023-03-02T14:34:02.988Z,100291.88
2023-03-02T14:36:31.083Z,100296.00
2023-03-02T14:38:59.233Z,100299.25
2023-03-02T14:41:27.090Z,100305.13
2023-03-02T14:43:55.644Z,100300.09
2023-03-02T14:46:23.898Z,100291.44
2023-03-02T14:48:51.633Z,100290.88
2023-03-02T14:51:20.048Z,100298.13
2023-03-02T14:53:48.420Z,100286.34
2023-03-02T14:56:16.940Z,100287.25
2023-03-02T14:58:44.789Z,100284.28
2023-03-02T15:01:12.650Z,100279.34
2023-03-02T15:03:40.697Z,100282.03
2023-03-02T15:06:08.602Z,100277.53
2023-03-02T15:08:37.349Z,100275.28
2023-03-02T15:11:05.245Z,100275.16
2023-03-02T15:13:32.933Z,100276.69
2023-03-02T15:16:02.749Z,100276.13
2023-03-02T15:18:30.762Z,100274.88
2023-03-02T15:20:59.224Z,100271.31
2023-03-02T15:23:27.336Z,100270.63
2023-03-02T15:25:55.189Z,100269.41
2023-03-02T15:28:23.103Z,100265.47
2023-03-02T15:30:51.013Z,100262.78
2023-03-02T15:33:19.576Z,100257.94
2023-03-02T15:35:47.534Z,100256.78
2023-03-02T15:38:16.042Z,100258.81
2023-03-02T15:40:44.697Z,100252.63
2023-03-02T15:43:12.797Z,100252.00
2023-03-02T15:45:41.485Z,100255.66
2023-03-02T15:48:09.662Z,100249.66
2023-03-02T15:50:38.136Z,100254.94
2023-03-02T15:53:06.335Z,100249.75
2023-03-02T15:55:34.309Z,100250.25
2023-03-02T15:58:02.348Z,100256.59
2023-03-02T16:00:30.307Z,100266.53
2023-03-02T16:02:58.311Z,100271.50
2023-03-02T16:05:26.218Z,100280.63
2023-03-02T16:07:54.389Z,100280.66
2023-03-02T16:10:25.416Z,100292.47
2023-03-02T16:12:53.338Z,100294.28
2023-03-02T16:15:21.440Z,100298.84
2023-03-02T16:17:49.408Z,100294.06
2023-03-02T16:20:17.249Z,100303.75
2023-03-02T16:22:46.125Z,100307.09
2023-03-02T16:25:13.880Z,100310.94
2023-03-02T16:27:45.309Z,100309.19
2023-03-02T16:30:14.391Z,100312.59
2023-03-02T16:32:42.363Z,100315.69
2023-03-02T16:35:10.926Z,100323.13
2023-03-02T16:37:38.942Z,100318.00
2023-03-02T16:40:06.817Z,100320.94
2023-03-02T16:42:34.849Z,100324.63
2023-03-02T16:45:03.389Z,100325.56
2023-03-02T16:47:31.618Z,100329.97
2023-03-02T16:49:59.460Z,100331.84
2023-03-02T16:52:27.568Z,100328.28
2023-03-02T16:54:55.416Z,100330.88
2023-03-02T16:57:23.314Z,100340.44
2023-03-02T16:59:51.336Z,100342.91
2023-03-02T17:02:19.306Z,100347.16
2023-03-02T17:04:47.128Z,100345.31
2023-03-02T17:07:17.195Z,100344.25
2023-03-02T17:09:45.047Z,100355.50
2023-03-02T17:12:13.222Z,100352.56
2023-03-02T17:14:41.392Z,100371.75
2023-03-02T17:17:09.264Z,100367.09
2023-03-02T17:19:37.393Z,100358.00
2023-03-02T17:22:05.502Z,100369.91
2023-03-02T17:24:33.786Z,100373.94
2023-03-02T17:27:01.740Z,100376.00
2023-03-02T17:29:29.803Z,100380.78
2023-03-02T17:31:57.734Z,100380.31
2023-03-02T17:34:28.836Z,100388.84
2023-03-02T17:36:57.668Z,100386.81
2023-03-02T17:39:26.066Z,100402.34
2023-03-02T17:41:53.915Z,100412.59
2023-03-02T17:44:22.113Z,100409.69
2023-03-02T17:46:50.027Z,100419.91
2023-03-02T17:49:19.004Z,100425.69
2023-03-02T17:51:46.950Z,100436.78
2023-03-02T17:54:14.833Z,100441.78
2023-03-02T17:56:42.778Z,100438.72
2023-03-02T17:59:10.766Z,100443.50
2023-03-02T18:01:39.247Z,100453.69
2023-03-02T18:04:07.335Z,100455.00
2023-03-02T18:06:35.467Z,100451.22
2023-03-02T18:09:03.891Z,100454.25
2023-03-02T18:11:32.156Z,100466.06
2023-03-02T18:14:00.239Z,100464.66
2023-03-02T18:16:28.178Z,100460.59
2023-03-02T18:18:56.254Z,100466.19
2023-03-02T18:21:24.587Z,100472.63
2023-03-02T18:23:52.580Z,100469.41
2023-03-02T18:26:21.085Z,100478.50
2023-03-02T18:28:49.102Z,100491.13
2023-03-02T18:31:17.173Z,100490.50
2023-03-02T18:33:47.073Z,100496.06
2023-03-02T18:36:15.133Z,100494.50
2023-03-02T18:38:43.334Z,100490.38
2023-03-02T18:41:11.297Z,100492.38
2023-03-02T18:43:39.358Z,100496.94
2023-03-02T18:46:08.811Z,100497.94
2023-03-02T18:48:37.906Z,100497.22
2023-03-02T18:51:06.104Z,100494.78
2023-03-02T18:53:34.295Z,100507.25
2023-03-02T18:56:02.586Z,100513.63
2023-03-02T18:58:34.432Z,100517.31
2023-03-02T19:01:02.553Z,100518.44
2023-03-02T19:03:31.052Z,100518.66
2023-03-02T19:05:59.435Z,100516.22
2023-03-02T19:08:27.387Z,100517.34
2023-03-02T19:10:55.517Z,100522.81
2023-03-02T19:13:23.480Z,100521.38
2023-03-02T19:15:52.738Z,100522.50
2023-03-02T19:18:22.673Z,100516.66
2023-03-02T19:20:50.659Z,100520.34
2023-03-02T19:23:18.908Z,100523.25
2023-03-02T19:25:46.876Z,100524.38
2023-03-02T19:28:15.491Z,100526.41
2023-03-02T19:30:43.464Z,100524.03
2023-03-02T19:33:11.352Z,100530.38
2023-03-02T19:35:39.733Z,100534.91
2023-03-02T19:38:07.756Z,100533.31
2023-03-02T19:40:36.398Z,100538.84
2023-03-02T19:43:04.952Z,100539.06
2023-03-02T19:45:32.983Z,100540.25
2023-03-02T19:48:01.137Z,100541.50
2023-03-02T19:50:29.097Z,100550.63
2023-03-02T19:52:56.906Z,100543.09
2023-03-02T19:55:25.220Z,100545.03
2023-03-02T19:57:59.888Z,100552.28
2023-03-02T20:00:28.205Z,100544.56
2023-03-02T20:02:56.629Z,100546.53
2023-03-02T20:05:26.209Z,100549.38
2023-03-02T20:07:54.037Z,100557.59
2023-03-02T20:10:21.990Z,100562.19
2023-03-02T20:12:50.047Z,100570.25
2023-03-02T20:15:17.906Z,100571.38
2023-03-02T20:17:46.053Z,100576.00
2023-03-02T20:20:14.191Z,100572.69
2023-03-02T20:22:41.974Z,100579.88
2023-03-02T20:25:11.595Z,100573.78
2023-03-02T20:27:39.564Z,100581.56
2023-03-02T20:30:08.193Z,100575.31
2023-03-02T20:32:36.151Z,100580.34
2023-03-02T20:35:04.196Z,100585.44
2023-03-02T20:37:32.673Z,100583.47
2023-03-02T20:40:00.756Z,100571.78
2023-03-02T20:42:32.010Z,100582.03
2023-03-02T20:45:00.636Z,100590.66
2023-03-02T20:47:28.887Z,100582.59
2023-03-02T20:49:57.296Z,100584.25
2023-03-02T20:52:25.211Z,100588.56
2023-03-02T20:54:53.381Z,100589.28
2023-03-02T20:57:21.657Z,100588.25
2023-03-02T20:59:49.551Z,100593.31
2023-03-02T21:02:17.762Z,100585.25
2023-03-02T21:04:45.581Z,100585.94
2023-03-02T21:07:13.892Z,100581.53
2023-03-02T21:09:42.170Z,100576.19
2023-03-02T21:12:12.117Z,100577.91
2023-03-02T21:14:40.500Z,100579.66
2023-03-02T21:17:08.381Z,100582.19
2023-03-02T21:19:36.818Z,100575.09
2023-03-02T21:22:04.672Z,100574.19
2023-03-02T21:24:32.522Z,100571.56
2023-03-02T21:27:01.673Z,100579.47
2023-03-02T21:29:30.006Z,100576.75
2023-03-02T21:31:58.299Z,100576.69
2023-03-02T21:34:26.402Z,100567.03
2023-03-02T21:36:54.586Z,100563.47
2023-03-02T21:39:23.881Z,100569.56
2023-03-02T21:41:51.697Z,100562.59
2023-03-02T21:44:20.077Z,100562.59
2023-03-02T21:46:47.997Z,100559.19
2023-03-02T21:49:15.854Z,100553.97
2023-03-02T21:51:44.005Z,100554.13
2023-03-02T21:54:12.461Z,100562.13
2023-03-02T21:56:40.579Z,100556.13
2023-03-02T21:59:08.419Z,100558.84
2023-03-02T22:01:36.163Z,100550.19
2023-03-02T22:04:04.371Z,100546.66
2023-03-02T22:06:32.263Z,100556.25
2023-03-02T22:09:00.107Z,100558.84
2023-03-02T22:11:28.277Z,100550.94
2023-03-02T22:13:56.207Z,100560.50
2023-03-02T22:16:25.745Z,100560.50
2023-03-02T22:18:53.707Z,100562.31
2023-03-02T22:21:21.788Z,100562.47
2023-03-02T22:23:49.678Z,100561.75
2023-03-02T22:26:17.455Z,100566.22
2023-03-02T22:28:45.242Z,100561.00
2023-03-02T22:31:13.053Z,100570.56
2023-03-02T22:33:41.838Z,100570.63
2023-03-02T22:36:09.669Z,100566.22
2023-03-02T22:38:37.773Z,100567.16
2023-03-02T22:41:05.648Z,100567.97
2023-03-02T22:43:34.408Z,100576.06
2023-03-02T22:46:02.289Z,100571.06
2023-03-02T22:48:30.044Z,100572.88
2023-03-02T22:50:57.719Z,100574.72
2023-03-02T22:53:25.615Z,100580.09
2023-03-02T22:55:53.292Z,100572.22
2023-03-02T22:58:21.473Z,100575.72
2023-03-02T23:00:49.392Z,100573.09
2023-03-02T23:03:17.646Z,100586.34
2023-03-02T23:05:49.160Z,100583.88
2023-03-02T23:08:18.398Z,100585.81
2023-03-02T23:10:46.153Z,100591.25
2023-03-02T23:13:13.881Z,100605.34
2023-03-02T23:15:42.894Z,100602.00
2023-03-02T23:18:10.904Z,100601.25
2023-03-02T23:20:38.583Z,100599.66
2023-03-02T23:23:07.030Z,100600.63
2023-03-02T23:25:34.736Z,100596.28
2023-03-02T23:28:02.444Z,100596.34
2023-03-02T23:30:30.688Z,100589.38
2023-03-02T23:32:58.372Z,100594.66
2023-03-02T23:35:26.470Z,100584.19
2023-03-02T23:37:54.244Z,100585.03
2023-03-02T23:40:22.245Z,100579.88
2023-03-02T23:42:50.104Z,100587.66
2023-03-02T23:45:18.081Z,100580.59
2023-03-02T23:47:46.146Z,100587.66
2023-03-02T23:50:13.804Z,100586.75
2023-03-02T23:52:41.503Z,100589.38
2023-03-02T23:55:09.342Z,100592.09
2023-03-02T23:57:36.953Z,100590.50
